Time;durP1;ratioP1;P1;durP2;ratioP2;P2;SDS_P1;SDS_P2;PMS_P1;PMS_P2;Temp;Humidity;BMP_temperature;BMP_pressure;BME280_temperature;BME280_humidity;BME280_pressure;Samples;Min_cycle;Max_cycle;Signal;HPM_P1;HPM_P2
2023/10/18 00:02:16;;;;;;;4.10;3.70;;;;;;;9.45;81.06;95061.94;5040109;28;20308;-73
2023/10/18 00:04:47;;;;;;;4.43;4.05;;;;;;;9.47;80.87;95058.81;5041242;28;20201;-73
2023/10/18 00:07:17;;;;;;;4.30;3.88;;;;;;;9.46;80.58;95049.75;5058540;28;20260;-75
2023/10/18 00:09:50;;;;;;;4.25;3.85;;;;;;;9.46;80.60;95049.75;5058313;28;20229;-75
2023/10/18 00:12:21;;;;;;;4.13;3.50;;;;;;;9.47;80.73;95064.31;5040402;28;20534;-75
2023/10/18 00:14:54;;;;;;;4.10;3.70;;;;;;;9.44;80.77;95056.75;5058156;28;20272;-75
2023/10/18 00:17:22;;;;;;;4.20;3.72;;;;;;;9.45;81.03;95052.88;5058047;28;20265;-75
2023/10/18 00:19:52;;;;;;;3.80;3.50;;;;;;;9.44;80.99;95056.75;5057709;28;20602;-75
2023/10/18 00:22:22;;;;;;;4.88;3.50;;;;;;;9.43;81.05;95055.97;5040451;28;20214;-73
2023/10/18 00:24:50;;;;;;;4.20;3.70;;;;;;;9.44;81.21;95046.56;5040907;28;20233;-73
2023/10/18 00:27:18;;;;;;;3.80;3.50;;;;;;;9.46;81.20;95040.69;5057586;28;20626;-73
2023/10/18 00:29:50;;;;;;;4.00;3.70;;;;;;;9.46;81.31;95041.50;5040254;28;20190;-73
2023/10/18 00:32:18;;;;;;;4.20;3.78;;;;;;;9.47;81.45;95032.09;5040265;28;20200;-73
2023/10/18 00:34:47;;;;;;;4.05;3.60;;;;;;;9.43;81.41;95033.94;5057407;28;20697;-73
2023/10/18 00:37:16;;;;;;;4.10;3.72;;;;;;;9.44;81.57;95040.25;5040321;28;20210;-73
2023/10/18 00:39:52;;;;;;;5.35;4.00;;;;;;;9.44;81.74;95034.72;5040433;28;20200;-74
2023/10/18 00:42:27;;;;;;;4.93;3.78;;;;;;;9.46;81.84;95037.94;5040132;28;20212;-73
2023/10/18 00:45:02;;;;;;;4.20;3.90;;;;;;;9.44;81.57;95031.97;5040838;28;20292;-73
2023/10/18 00:47:30;;;;;;;4.05;3.75;;;;;;;9.43;81.72;95028.44;5040140;28;20221;-73
2023/10/18 00:49:58;;;;;;;4.75;3.72;;;;;;;9.43;81.55;95028.44;5039605;28;20251;-73
2023/10/18 00:52:28;;;;;;;4.18;3.88;;;;;;;9.44;81.58;95034.72;5057143;28;20181;-73
2023/10/18 00:54:56;;;;;;;4.10;3.80;;;;;;;9.42;81.60;95037.03;5057584;28;20288;-74
2023/10/18 00:57:26;;;;;;;4.97;3.80;;;;;;;9.39;81.93;95038.53;5057342;28;20186;-73
2023/10/18 00:59:56;;;;;;;4.20;3.72;;;;;;;9.40;82.04;95045.63;5040405;28;20241;-73
2023/10/18 01:02:28;;;;;;;4.38;3.55;;;;;;;9.43;82.50;95039.44;5057198;28;20193;-73
2023/10/18 01:05:00;;;;;;;4.28;3.88;;;;;;;9.45;82.60;95034.41;5039857;28;20197;-73
2023/10/18 01:07:30;;;;;;;4.13;3.83;;;;;;;9.46;82.66;95027.75;5039184;28;20272;-73
2023/10/18 01:09:58;;;;;;;4.63;4.00;;;;;;;9.48;82.71;95030.16;5057610;28;20289;-73
2023/10/18 01:12:25;;;;;;;4.20;3.90;;;;;;;9.48;82.61;95032.91;5057205;28;20197;-73
2023/10/18 01:14:54;;;;;;;4.35;3.95;;;;;;;9.49;82.72;95038.06;5039359;28;20246;-72
2023/10/18 01:17:21;;;;;;;4.70;3.95;;;;;;;9.49;82.88;95029.81;5039097;28;20279;-72
2023/10/18 01:19:49;;;;;;;4.32;3.70;;;;;;;9.51;82.93;95035.75;5056941;28;20178;-72
2023/10/18 01:22:17;;;;;;;4.63;4.25;;;;;;;9.53;82.98;95032.66;5056769;28;20265;-73
2023/10/18 01:24:50;;;;;;;4.10;3.80;;;;;;;9.53;82.88;95036.22;5056575;28;20597;-73
2023/10/18 01:27:18;;;;;;;4.88;4.47;;;;;;;9.53;82.67;95038.97;5039597;28;20213;-73
2023/10/18 01:29:47;;;;;;;5.35;4.90;;;;;;;9.54;82.65;95034.25;5056365;28;20597;-73
2023/10/18 01:32:18;;;;;;;5.32;4.85;;;;;;;9.55;82.56;95038.59;5057188;28;20186;-74
2023/10/18 01:34:47;;;;;;;5.13;4.72;;;;;;;9.54;82.46;95026.81;5039060;28;20206;-74
2023/10/18 01:37:20;;;;;;;5.75;5.20;;;;;;;9.54;82.11;95034.25;5038405;28;20206;-74
2023/10/18 01:39:57;;;;;;;5.80;5.30;;;;;;;9.52;82.37;95037.38;5039573;28;20229;-73
2023/10/18 01:42:30;;;;;;;6.15;5.55;;;;;;;9.52;82.43;95034.63;5056300;28;20190;-72
2023/10/18 01:45:01;;;;;;;6.80;6.20;;;;;;;9.55;82.64;95036.69;5056094;28;20253;-73
2023/10/18 01:47:32;;;;;;;6.35;5.75;;;;;;;9.56;82.21;95035.53;5038963;28;20233;-73
2023/10/18 01:50:00;;;;;;;6.18;5.57;;;;;;;9.56;81.82;95034.72;5056628;28;20182;-74
2023/10/18 01:52:29;;;;;;;6.10;5.60;;;;;;;9.57;81.81;95039.88;5039153;28;20201;-74
2023/10/18 01:54:58;;;;;;;6.47;5.88;;;;;;;9.55;81.08;95036.69;5056294;28;20190;-74
2023/10/18 01:57:25;;;;;;;5.97;5.47;;;;;;;9.55;81.27;95038.59;5056208;28;20249;-74
2023/10/18 01:59:56;;;;;;;6.45;5.95;;;;;;;9.53;81.76;95033.47;5039040;28;20225;-73
2023/10/18 02:02:27;;;;;;;6.88;6.25;;;;;;;9.56;82.09;95031.97;5056334;28;20251;-73
2023/10/18 02:04:57;;;;;;;7.25;6.55;;;;;;;9.56;82.16;95031.97;5038866;28;20201;-73
2023/10/18 02:07:24;;;;;;;7.07;6.38;;;;;;;9.54;82.07;95040.56;5039147;28;20201;-73
2023/10/18 02:09:57;;;;;;;7.43;6.82;;;;;;;9.54;82.07;95035.06;5038957;28;20301;-73
2023/10/18 02:12:27;;;;;;;7.72;6.88;;;;;;;9.55;82.17;95041.38;5037862;28;20206;-74
2023/10/18 02:14:59;;;;;;;7.45;6.82;;;;;;;9.56;82.06;95035.53;5038631;28;20197;-74
2023/10/18 02:17:27;;;;;;;7.13;6.53;;;;;;;9.59;81.94;95042.31;5038400;28;20204;-72
2023/10/18 02:19:59;;;;;;;7.75;7.05;;;;;;;9.60;82.16;95041.94;5038191;28;20244;-72
2023/10/18 02:22:31;;;;;;;7.32;6.72;;;;;;;9.60;81.77;95033.69;5038727;28;20201;-74
2023/10/18 02:25:02;;;;;;;8.18;7.40;;;;;;;9.60;81.60;95044.69;5037830;28;20616;-74
2023/10/18 02:27:36;;;;;;;8.55;7.75;;;;;;;9.59;81.33;95037.59;5038546;28;20201;-74
2023/10/18 02:30:10;;;;;;;8.13;7.43;;;;;;;9.58;81.15;95040.66;5056154;28;20190;-73
2023/10/18 02:32:41;;;;;;;8.82;8.02;;;;;;;9.58;81.16;95035.16;5053665;28;20210;-74
2023/10/18 02:35:16;;;;;;;9.25;8.25;;;;;;;9.58;81.10;95029.66;5038710;28;20210;-73
2023/10/18 02:37:45;;;;;;;9.02;8.18;;;;;;;9.57;81.17;95034.38;5055110;28;20566;-73
2023/10/18 02:40:29;;;;;;;8.50;7.70;;;;;;;9.57;81.11;95031.63;5055224;28;20605;-73
2023/10/18 02:43:07;;;;;;;8.73;7.82;;;;;;;9.56;81.20;95032.78;5055080;28;20192;-73
2023/10/18 02:45:35;;;;;;;8.35;7.55;;;;;;;9.58;81.28;95037.91;5038455;28;20198;-73
2023/10/18 02:48:02;;;;;;;8.88;7.97;;;;;;;9.58;81.28;95024.16;5038325;28;20275;-74
2023/10/18 02:50:30;;;;;;;8.95;8.05;;;;;;;9.56;81.11;95020.97;5037022;28;20218;-74
2023/10/18 02:53:00;;;;;;;7.78;6.80;;;;;;;9.55;81.31;95033.09;5029861;28;20238;-74
2023/10/18 02:55:28;;;;;;;7.38;6.70;;;;;;;9.53;81.48;95032.66;5015394;28;20286;-73
2023/10/18 02:57:56;;;;;;;7.03;6.32;;;;;;;9.54;81.71;95017.75;5015288;28;20202;-73
2023/10/18 03:00:34;;;;;;;6.82;6.22;;;;;;;9.53;81.99;95022.44;5015584;28;20187;-74
2023/10/18 03:03:02;;;;;;;7.28;6.57;;;;;;;9.51;82.16;95024.72;5016380;28;20270;-73
2023/10/18 03:05:32;;;;;;;6.93;6.30;;;;;;;9.51;82.14;95021.19;5013743;28;20218;-73
2023/10/18 03:08:04;;;;;;;6.20;5.63;;;;;;;9.50;82.27;95025.88;5015497;28;20226;-75
2023/10/18 03:10:33;;;;;;;6.90;6.20;;;;;;;9.52;82.65;95031.06;5014856;28;20198;-74
2023/10/18 03:13:10;;;;;;;7.57;6.75;;;;;;;9.53;82.56;95027.16;5015286;28;20202;-74
2023/10/18 03:15:53;;;;;;;7.75;6.95;;;;;;;9.51;82.74;95016.47;5015101;28;20203;-74
2023/10/18 03:18:24;;;;;;;8.00;7.30;;;;;;;9.52;82.57;95020.06;5015366;28;20210;-74
2023/10/18 03:20:57;;;;;;;7.80;6.90;;;;;;;9.52;82.64;95023.59;5015323;28;20218;-74
2023/10/18 03:23:26;;;;;;;8.60;7.80;;;;;;;9.53;82.49;95025.19;5015092;28;20214;-74
2023/10/18 03:26:01;;;;;;;7.93;7.18;;;;;;;9.52;82.27;95023.59;5015357;28;20266;-75
2023/10/18 03:28:34;;;;;;;8.10;7.28;;;;;;;9.52;82.25;95018.09;5015305;28;20250;-75
2023/10/18 03:31:20;;;;;;;8.00;7.20;;;;;;;9.53;82.22;95016.16;5014471;28;20203;-75
2023/10/18 03:33:52;;;;;;;7.57;6.88;;;;;;;9.54;82.22;95020.50;5014628;28;20210;-74
2023/10/18 03:36:21;;;;;;;8.10;7.30;;;;;;;9.54;81.98;95015.00;5014992;28;20603;-70
2023/10/18 03:39:00;;;;;;;7.75;6.95;;;;;;;9.53;81.93;95005.13;5014760;28;20285;-71
2023/10/18 03:41:32;;;;;;;7.22;6.53;;;;;;;9.54;81.87;95001.22;5014351;28;20199;-71
2023/10/18 03:44:06;;;;;;;7.30;6.70;;;;;;;9.53;81.62;95007.88;5015409;28;20199;-71
2023/10/18 03:46:57;;;;;;;7.40;6.70;;;;;;;9.53;81.53;94994.13;5015184;28;20219;-71
2023/10/18 03:49:31;;;;;;;7.55;6.85;;;;;;;9.55;81.27;95013.81;5014339;28;20318;-74
2023/10/18 03:52:05;;;;;;;7.80;7.10;;;;;;;9.51;81.08;95016.47;5015198;28;20606;-74
2023/10/18 03:54:44;;;;;;;7.60;6.90;;;;;;;9.51;81.02;95010.97;5049523;28;20295;-74
2023/10/18 03:57:16;;;;;;;7.57;6.88;;;;;;;9.53;81.04;95008.69;5054969;28;20251;-74
2023/10/18 03:59:45;;;;;;;7.22;6.63;;;;;;;9.54;80.92;95001.22;5037439;28;20185;-69
2023/10/18 04:02:26;;;;;;;8.23;7.43;;;;;;;9.56;81.17;94990.69;5039654;28;20424;-72
2023/10/18 04:05:00;;;;;;;7.95;7.00;;;;;;;9.55;81.13;94987.13;5058129;28;20247;-69
2023/10/18 04:07:29;;;;;;;7.47;6.78;;;;;;;9.53;81.44;94992.16;5040764;28;20201;-70
2023/10/18 04:10:11;;;;;;;7.88;7.18;;;;;;;9.52;81.38;94996.06;5040845;28;20228;-70
2023/10/18 04:12:40;;;;;;;7.25;6.55;;;;;;;9.50;81.42;94990.09;5040667;28;20209;-70
2023/10/18 04:15:21;;;;;;;7.45;6.75;;;;;;;9.51;81.75;94988.94;5041034;28;20216;-70
2023/10/18 04:18:02;;;;;;;7.85;7.15;;;;;;;9.51;81.80;94985.38;5024021;28;20217;-70
2023/10/18 04:20:31;;;;;;;7.75;7.05;;;;;;;9.52;81.81;94987.81;5041124;28;20193;-70
2023/10/18 04:22:58;;;;;;;8.07;7.38;;;;;;;9.50;81.76;94986.56;5040524;28;20225;-70
2023/10/18 04:25:26;;;;;;;7.97;7.28;;;;;;;9.50;81.83;94983.78;5040835;28;20198;-70
2023/10/18 04:27:57;;;;;;;7.45;6.40;;;;;;;9.51;81.82;94994.44;5040593;28;20190;-70
2023/10/18 04:30:25;;;;;;;7.50;6.30;;;;;;;9.47;81.64;94996.28;5040068;28;20283;-70
2023/10/18 04:32:59;;;;;;;6.80;6.15;;;;;;;9.49;81.48;94995.97;5041132;28;20204;-70
2023/10/18 04:35:29;;;;;;;7.75;7.05;;;;;;;9.47;81.01;94990.78;5057791;28;20542;-70
2023/10/18 04:37:56;;;;;;;9.10;8.20;;;;;;;9.47;81.22;94998.25;5057330;28;20227;-70
2023/10/18 04:40:25;;;;;;;10.48;8.45;;;;;;;9.45;81.22;94995.84;5040804;28;20569;-70
2023/10/18 04:42:54;;;;;;;9.68;8.68;;;;;;;9.44;81.59;94996.19;5039699;28;20209;-70
2023/10/18 04:45:23;;;;;;;9.20;8.23;;;;;;;9.45;81.97;94997.81;5040791;28;20228;-70
2023/10/18 04:47:50;;;;;;;9.60;8.57;;;;;;;9.44;82.25;95004.44;5057175;28;20190;-70
2023/10/18 04:50:29;;;;;;;8.63;7.80;;;;;;;9.43;82.45;95000.91;5057384;28;20202;-70
2023/10/18 04:52:58;;;;;;;7.95;7.25;;;;;;;9.38;82.10;95004.69;5032890;28;20624;-69
2023/10/18 04:55:27;;;;;;;7.70;7.10;;;;;;;9.38;82.32;95012.97;5016396;28;20238;-70
2023/10/18 04:57:53;;;;;;;7.63;7.03;;;;;;;9.39;82.68;95016.50;5017060;28;20616;-70
2023/10/18 05:00:35;;;;;;;7.72;7.07;;;;;;;9.38;82.80;95021.22;5017593;28;20191;-69
2023/10/18 05:03:06;;;;;;;7.35;6.65;;;;;;;9.35;82.63;95037.63;5017337;28;20524;-69
2023/10/18 05:05:44;;;;;;;6.70;6.18;;;;;;;9.32;82.66;95038.31;5017389;28;20571;-69
2023/10/18 05:08:15;;;;;;;7.05;6.30;;;;;;;9.33;82.89;95034.41;5017279;28;20202;-69
2023/10/18 05:10:45;;;;;;;6.80;6.10;;;;;;;9.34;82.85;95041.53;5016483;28;20650;-69
2023/10/18 05:13:19;;;;;;;6.97;6.28;;;;;;;9.34;83.02;95047.84;5015482;28;20293;-68
2023/10/18 05:15:50;;;;;;;6.53;5.93;;;;;;;9.35;82.92;95054.13;5016432;28;20202;-71
2023/10/18 05:18:18;;;;;;;7.63;6.32;;;;;;;9.35;82.87;95054.94;5016291;28;20203;-69
2023/10/18 05:20:55;;;;;;;6.57;6.03;;;;;;;9.35;83.01;95059.63;5017122;28;20199;-69
2023/10/18 05:23:24;;;;;;;6.80;6.20;;;;;;;9.36;83.17;95061.25;5016238;28;20603;-68
2023/10/18 05:26:08;;;;;;;6.43;5.82;;;;;;;9.35;83.44;95068.69;5016719;28;20195;-69
2023/10/18 05:28:47;;;;;;;7.45;6.45;;;;;;;9.37;83.42;95082.94;5015949;28;20309;-68
2023/10/18 05:34:18;;;;;;;7.22;6.00;;;;;;;9.40;83.29;95079.50;4956805;29;20292;-71
2023/10/18 05:37:12;;;;;;;6.97;6.38;;;;;;;9.42;83.23;95081.88;5001694;28;20222;-71
2023/10/18 05:39:53;;;;;;;6.38;5.78;;;;;;;9.46;83.31;95082.00;5015606;28;20206;-70
2023/10/18 05:42:21;;;;;;;6.47;5.88;;;;;;;9.48;83.27;95076.97;5016549;28;20206;-71
2023/10/18 05:44:49;;;;;;;7.00;6.30;;;;;;;9.49;82.91;95067.53;5016686;28;20194;-71
2023/10/18 05:47:18;;;;;;;7.78;7.18;;;;;;;9.48;82.99;95061.25;5016280;28;20294;-71
2023/10/18 05:49:46;;;;;;;11.15;7.63;;;;;;;9.46;82.65;95060.78;5016837;28;20234;-71
2023/10/18 05:52:29;;;;;;;8.95;8.05;;;;;;;9.47;82.68;95064.31;5016459;28;20198;-71
2023/10/18 05:54:58;;;;;;;8.25;7.55;;;;;;;9.50;82.67;95061.69;5016298;28;20189;-70
2023/10/18 05:57:26;;;;;;;7.75;7.03;;;;;;;9.52;82.79;95053.09;5016828;28;20206;-70
2023/10/18 05:59:53;;;;;;;6.68;6.07;;;;;;;9.55;82.54;95060.63;5016475;28;20179;-70
2023/10/18 06:02:24;;;;;;;5.45;4.93;;;;;;;9.56;82.27;95065.81;5016346;28;20207;-70
2023/10/18 06:04:51;;;;;;;4.78;4.38;;;;;;;9.57;81.87;95069.38;5015440;28;20265;-70
2023/10/18 06:07:24;;;;;;;5.40;4.60;;;;;;;9.57;81.31;95072.91;5016322;28;20275;-70
2023/10/18 06:09:57;;;;;;;4.10;3.72;;;;;;;9.53;80.90;95072.00;5015928;28;20221;-70
2023/10/18 06:12:30;;;;;;;4.40;4.10;;;;;;;9.52;80.60;95075.13;5015361;28;20301;-70
2023/10/18 06:15:10;;;;;;;5.25;4.75;;;;;;;9.53;80.77;95072.00;5016685;28;20201;-70
2023/10/18 06:17:46;;;;;;;5.30;4.80;;;;;;;9.56;80.88;95067.78;5016220;28;20188;-70
2023/10/18 06:20:24;;;;;;;4.93;4.50;;;;;;;9.57;80.94;95067.41;5015698;28;20198;-70
2023/10/18 06:23:09;;;;;;;5.68;4.93;;;;;;;9.62;80.85;95077.38;5016344;28;20266;-70
2023/10/18 06:25:44;;;;;;;6.05;4.65;;;;;;;9.65;80.98;95077.50;5015697;28;20191;-70
2023/10/18 06:28:11;;;;;;;5.45;4.95;;;;;;;9.68;80.71;95084.25;5015991;28;20198;-71
2023/10/18 06:30:40;;;;;;;5.53;5.03;;;;;;;9.72;80.72;95081.63;5015787;28;20223;-71
2023/10/18 06:33:12;;;;;;;5.32;4.82;;;;;;;9.71;80.46;95086.31;5016159;28;20201;-70
2023/10/18 06:35:45;;;;;;;5.22;4.72;;;;;;;9.71;80.49;95085.53;5015814;28;20180;-70
2023/10/18 06:38:17;;;;;;;5.10;4.70;;;;;;;9.75;80.62;95087.22;5015828;28;20215;-70
2023/10/18 06:40:50;;;;;;;5.80;5.10;;;;;;;9.79;80.54;95090.91;5015486;28;20516;-70
2023/10/18 06:43:20;;;;;;;5.85;5.35;;;;;;;9.80;80.49;95095.28;5016024;28;20285;-70
2023/10/18 06:45:48;;;;;;;5.10;4.70;;;;;;;9.83;80.61;95099.28;5015971;28;20276;-70
2023/10/18 06:48:17;;;;;;;4.95;4.55;;;;;;;9.84;80.29;95093.44;5015920;28;20190;-70
2023/10/18 06:50:46;;;;;;;5.30;4.90;;;;;;;9.88;80.36;95091.59;5014987;28;20219;-70
2023/10/18 06:53:15;;;;;;;5.28;4.78;;;;;;;9.84;80.12;95090.69;5028104;28;20237;-70
2023/10/18 06:55:44;;;;;;;4.63;4.32;;;;;;;9.85;79.86;95092.28;5055288;28;20224;-70
2023/10/18 06:58:19;;;;;;;5.38;4.88;;;;;;;9.87;79.91;95089.16;5037661;28;20202;-70
2023/10/18 07:00:51;;;;;;;4.93;4.43;;;;;;;9.94;79.54;95096.84;5037710;28;20723;-70
2023/10/18 07:03:18;;;;;;;4.85;4.40;;;;;;;9.98;79.37;95100.50;5037684;28;20247;-70
2023/10/18 07:05:52;;;;;;;6.13;4.75;;;;;;;10.02;79.06;95105.00;5037353;28;20649;-70
2023/10/18 07:08:29;;;;;;;5.15;4.75;;;;;;;10.07;79.28;95110.25;5037554;28;20201;-70
2023/10/18 07:10:56;;;;;;;5.45;4.90;;;;;;;10.09;79.16;95107.94;5055272;28;20205;-70
2023/10/18 07:13:34;;;;;;;5.07;4.57;;;;;;;10.12;78.81;95104.47;5055077;28;20516;-71
2023/10/18 07:16:05;;;;;;;6.20;5.38;;;;;;;10.15;78.82;95111.25;5037811;28;20208;-70
2023/10/18 07:18:33;;;;;;;5.32;4.93;;;;;;;10.19;78.59;95111.34;5055284;28;20182;-70
2023/10/18 07:21:05;;;;;;;8.88;5.82;;;;;;;10.20;78.27;95108.25;5054641;28;20621;-70
2023/10/18 07:23:37;;;;;;;7.47;5.32;;;;;;;10.21;77.99;95106.31;5037761;28;20212;-70
2023/10/18 07:26:07;;;;;;;6.13;5.53;;;;;;;10.21;77.86;95104.34;5038335;28;20186;-70
2023/10/18 07:28:36;;;;;;;7.25;5.40;;;;;;;10.22;77.93;95103.19;5054702;28;20244;-70
2023/10/18 07:31:08;;;;;;;5.90;5.40;;;;;;;10.25;78.21;95105.28;5037745;28;20229;-71
2023/10/18 07:33:40;;;;;;;6.22;5.63;;;;;;;10.30;78.30;95094.00;5054604;28;20288;-71
2023/10/18 07:36:09;;;;;;;7.10;6.35;;;;;;;10.31;78.34;95101.13;5039436;28;20201;-72
2023/10/18 07:38:48;;;;;;;6.78;6.18;;;;;;;10.35;77.94;95095.72;5042161;28;20229;-71
2023/10/18 07:41:15;;;;;;;6.78;6.18;;;;;;;10.37;78.04;95104.44;5041346;28;20208;-70
2023/10/18 07:43:44;;;;;;;7.75;6.38;;;;;;;10.39;77.82;95104.09;5041778;28;20202;-71
2023/10/18 07:46:16;;;;;;;6.35;5.68;;;;;;;10.41;77.83;95099.81;5058939;28;20194;-70
2023/10/18 07:48:47;;;;;;;5.68;5.18;;;;;;;10.43;77.31;95094.75;5058620;28;20269;-70
2023/10/18 07:51:23;;;;;;;7.50;5.82;;;;;;;10.46;77.03;95090.50;5041829;28;20232;-70
2023/10/18 07:53:54;;;;;;;9.95;6.88;;;;;;;10.50;77.11;95085.88;5040539;28;20283;-71
2023/10/18 07:56:27;;;;;;;10.27;8.00;;;;;;;10.55;76.90;95086.44;5040930;28;20200;-71
2023/10/18 07:58:55;;;;;;;6.90;6.00;;;;;;;10.63;76.69;95094.91;5041486;28;20217;-71
2023/10/18 08:04:19;;;;;;;6.15;5.22;;;;;;;10.70;76.02;95095.88;5006313;28;20527;-70
2023/10/18 08:06:48;;;;;;;5.80;5.30;;;;;;;10.74;76.10;95101.50;5041607;28;20271;-69
2023/10/18 08:09:20;;;;;;;7.50;6.30;;;;;;;10.76;75.63;95094.47;5058217;28;20182;-69
2023/10/18 08:11:47;;;;;;;10.85;7.90;;;;;;;10.77;75.67;95096.06;5058095;28;20605;-68
2023/10/18 08:14:24;;;;;;;10.05;7.15;;;;;;;10.77;75.20;95100.78;5041330;28;20248;-71
2023/10/18 08:16:55;;;;;;;7.88;6.90;;;;;;;10.78;75.16;95102.41;5040924;28;20190;-72
2023/10/18 08:19:25;;;;;;;7.80;6.20;;;;;;;10.82;75.22;95103.28;5040849;28;20205;-70
2023/10/18 08:22:21;;;;;;;6.88;6.20;;;;;;;10.85;74.96;95102.59;5057989;28;20186;-74
2023/10/18 08:24:53;;;;;;;8.27;7.05;;;;;;;10.88;74.69;95103.84;5057754;28;20178;-69
2023/10/18 08:27:23;;;;;;;8.30;7.43;;;;;;;10.92;74.58;95108.28;5041227;28;20186;-68
2023/10/18 08:29:56;;;;;;;8.35;7.43;;;;;;;10.93;74.39;95098.88;5057703;28;20601;-65
2023/10/18 08:32:31;;;;;;;11.38;7.65;;;;;;;10.95;74.20;95102.06;5058390;28;20204;-73
2023/10/18 08:35:06;;;;;;;9.63;7.75;;;;;;;10.97;74.58;95108.06;5058310;28;20272;-68
2023/10/18 08:37:36;;;;;;;9.65;7.10;;;;;;;11.02;74.42;95115.25;5057705;28;20198;-69
2023/10/18 08:40:15;;;;;;;8.52;7.30;;;;;;;11.05;74.17;95112.59;5040854;28;20198;-68
2023/10/18 08:42:51;;;;;;;7.03;6.32;;;;;;;11.05;73.68;95112.59;5057526;28;20277;-68
2023/10/18 08:45:23;;;;;;;7.38;6.40;;;;;;;11.06;73.90;95108.66;5057510;28;20190;-68
2023/10/18 08:47:57;;;;;;;6.57;5.88;;;;;;;11.09;73.78;95109.91;5040491;28;20202;-68
2023/10/18 08:50:25;;;;;;;7.78;6.03;;;;;;;11.15;73.83;95115.97;5040344;28;20217;-67
2023/10/18 08:52:56;;;;;;;6.22;5.70;;;;;;;11.19;73.78;95122.41;5032980;28;20234;-68
2023/10/18 08:55:43;;;;;;;6.63;6.03;;;;;;;11.22;73.34;95116.97;5016737;28;20211;-68
2023/10/18 08:58:12;;;;;;;6.57;5.57;;;;;;;11.25;72.96;95118.19;5016804;28;20203;-68
2023/10/18 09:03:27;;;;;;;6.47;5.53;;;;;;;11.35;73.02;95116.88;5015968;28;20202;-67
2023/10/18 09:06:04;;;;;;;6.25;5.53;;;;;;;11.39;73.45;95118.56;5017132;28;20189;-68
2023/10/18 09:08:37;;;;;;;5.65;5.07;;;;;;;11.41;73.10;95124.53;5016048;28;20289;-68
2023/10/18 09:11:20;;;;;;;6.18;5.60;;;;;;;11.42;72.51;95125.34;5016925;28;20202;-68
2023/10/18 09:14:07;;;;;;;6.30;5.70;;;;;;;11.41;72.22;95126.50;5017354;28;20187;-68
2023/10/18 09:16:37;;;;;;;6.70;5.65;;;;;;;11.40;72.06;95124.88;5017353;28;20206;-68
2023/10/18 09:19:04;;;;;;;7.55;5.53;;;;;;;11.40;72.57;95131.22;5017594;28;20205;-68
2023/10/18 09:21:36;;;;;;;6.60;6.00;;;;;;;11.38;71.88;95139.06;5016814;28;20289;-68
2023/10/18 09:24:05;;;;;;;6.60;5.90;;;;;;;11.39;71.57;95137.09;5016283;28;20620;-68
2023/10/18 09:26:40;;;;;;;6.72;5.70;;;;;;;11.38;71.77;95133.53;5017969;28;20180;-68
2023/10/18 09:29:08;;;;;;;5.88;5.28;;;;;;;11.38;71.47;95135.50;5018049;28;20202;-68
2023/10/18 09:31:36;;;;;;;5.68;5.18;;;;;;;11.38;71.48;95130.78;5018085;28;20222;-68
2023/10/18 09:34:08;;;;;;;5.68;5.18;;;;;;;11.38;71.93;95119.72;5018193;28;20215;-68
2023/10/18 09:36:38;;;;;;;5.40;4.70;;;;;;;11.39;72.16;95123.28;5018095;28;20245;-69
2023/10/18 09:39:09;;;;;;;6.03;5.53;;;;;;;11.36;71.82;95110.19;5016881;28;20195;-68
2023/10/18 09:41:39;;;;;;;5.80;5.20;;;;;;;11.36;71.63;95118.47;5000947;28;20195;-68
2023/10/18 09:44:07;;;;;;;6.50;5.90;;;;;;;11.37;71.78;95109.84;5016174;28;20689;-68
2023/10/18 09:46:34;;;;;;;5.82;5.25;;;;;;;11.39;71.93;95110.28;5017451;28;20210;-67
2023/10/18 09:49:05;;;;;;;5.85;5.35;;;;;;;11.41;71.97;95107.19;5017383;28;20191;-68
2023/10/18 09:51:33;;;;;;;7.10;6.40;;;;;;;11.44;72.03;95106.47;5016408;28;20215;-68
2023/10/18 09:54:06;;;;;;;7.55;6.88;;;;;;;11.42;72.16;95109.56;5016056;28;20239;-68
2023/10/18 09:56:34;;;;;;;8.05;6.90;;;;;;;11.42;72.11;95104.03;5017280;28;20285;-68
2023/10/18 09:59:08;;;;;;;6.97;6.28;;;;;;;11.43;72.61;95094.59;5016154;28;20705;-68
2023/10/18 10:04:18;;;;;;;5.97;5.38;;;;;;;11.46;72.51;95093.88;5017612;28;20195;-68
2023/10/18 10:06:47;;;;;;;8.68;6.90;;;;;;;11.48;72.35;95086.06;5016790;28;20214;-68
2023/10/18 10:09:14;;;;;;;7.05;6.35;;;;;;;11.51;72.16;95084.50;5016986;28;20209;-67
2023/10/18 10:11:43;;;;;;;6.82;6.22;;;;;;;11.54;72.32;95078.28;5017203;28;20246;-67
2023/10/18 10:14:15;;;;;;;7.70;6.88;;;;;;;11.62;72.46;95076.47;5033202;28;20191;-69
2023/10/18 10:16:45;;;;;;;6.82;6.22;;;;;;;11.72;71.88;95078.69;5016336;28;20218;-69
2023/10/18 10:19:13;;;;;;;6.45;5.53;;;;;;;11.79;71.89;95076.09;5016850;28;20191;-67
2023/10/18 10:21:44;;;;;;;6.90;5.82;;;;;;;11.85;70.93;95071.91;5016895;28;20195;-68
2023/10/18 10:26:51;;;;;;;6.03;5.53;;;;;;;11.90;69.81;95065.31;5016924;28;20289;-68
2023/10/18 10:32:09;;;;;;;7.90;6.25;;;;;;;11.98;70.55;95054.06;5012186;28;20756;-68
2023/10/18 10:34:38;;;;;;;6.55;5.95;;;;;;;12.01;70.36;95056.06;5016682;28;20223;-68
2023/10/18 10:37:09;;;;;;;7.13;5.93;;;;;;;12.03;70.19;95064.03;5017087;28;20265;-68
2023/10/18 10:39:44;;;;;;;7.50;5.65;;;;;;;12.04;70.09;95057.31;5016099;28;20203;-68
2023/10/18 10:42:19;;;;;;;6.00;5.38;;;;;;;12.06;70.09;95056.97;5032611;28;20232;-67
2023/10/18 10:45:10;;;;;;;5.57;5.10;;;;;;;12.08;70.05;95063.72;5016773;28;20222;-68
2023/10/18 10:47:45;;;;;;;6.40;5.75;;;;;;;12.12;70.67;95069.31;5016737;28;20283;-68
2023/10/18 10:50:45;;;;;;;4.90;4.50;;;;;;;12.12;70.08;95066.56;5016426;28;20195;-68
2023/10/18 10:53:12;;;;;;;5.78;5.28;;;;;;;12.12;69.32;95066.56;5028847;28;20236;-68
2023/10/18 10:55:43;;;;;;;5.78;5.25;;;;;;;12.10;69.40;95061.41;5056365;28;20205;-68
2023/10/18 10:58:16;;;;;;;6.10;5.43;;;;;;;12.09;69.67;95072.81;5056411;28;20248;-68
2023/10/18 11:01:04;;;;;;;5.85;5.35;;;;;;;12.08;69.38;95063.72;5038722;28;20194;-68
2023/10/18 11:03:52;;;;;;;6.30;5.70;;;;;;;12.09;69.34;95064.53;5038164;28;20205;-67
2023/10/18 11:06:24;;;;;;;6.05;5.50;;;;;;;12.08;69.64;95063.72;5056134;28;20204;-68
2023/10/18 11:08:56;;;;;;;6.50;5.90;;;;;;;12.12;69.74;95069.31;5055875;28;20606;-67
2023/10/18 11:11:26;;;;;;;6.35;5.85;;;;;;;12.11;70.21;95062.22;5058320;28;20210;-68
2023/10/18 11:13:55;;;;;;;7.20;6.50;;;;;;;12.10;70.03;95064.19;5042515;28;20190;-68
2023/10/18 11:16:28;;;;;;;6.20;5.57;;;;;;;12.10;69.95;95064.19;5042015;28;20202;-68
2023/10/18 11:18:55;;;;;;;6.75;6.05;;;;;;;12.08;69.53;95066.50;5059975;28;20196;-68
2023/10/18 11:21:24;;;;;;;6.75;6.10;;;;;;;12.08;69.39;95069.25;5043028;28;20288;-68
2023/10/18 11:23:56;;;;;;;5.93;5.32;;;;;;;12.08;69.59;95060.16;5060265;28;20272;-68
2023/10/18 11:26:25;;;;;;;6.28;5.68;;;;;;;12.10;69.46;95061.41;5059947;28;20273;-67
2023/10/18 11:28:56;;;;;;;6.68;6.07;;;;;;;12.11;69.90;95062.22;5060209;28;20188;-68
2023/10/18 11:31:27;;;;;;;6.53;5.70;;;;;;;12.11;69.45;95063.00;5041642;28;20217;-68
2023/10/18 11:33:59;;;;;;;6.13;5.47;;;;;;;12.12;69.45;95067.38;5058870;28;20193;-68
2023/10/18 11:36:28;;;;;;;6.10;5.50;;;;;;;12.14;69.65;95056.75;5059247;28;20269;-68
2023/10/18 11:41:41;;;;;;;6.00;5.50;;;;;;;12.19;69.88;95056.44;5041365;28;20208;-68
2023/10/18 11:44:13;;;;;;;6.00;5.50;;;;;;;12.21;69.46;95042.28;5058344;28;20190;-67
2023/10/18 11:46:47;;;;;;;6.32;5.72;;;;;;;12.22;69.58;95041.91;5058367;28;20194;-68
2023/10/18 11:49:18;;;;;;;5.70;5.20;;;;;;;12.24;69.47;95039.59;5041628;28;20193;-68
2023/10/18 11:51:49;;;;;;;6.00;5.50;;;;;;;12.28;69.07;95039.66;5058525;28;20292;-68
2023/10/18 11:54:30;;;;;;;6.15;5.55;;;;;;;12.32;69.43;95040.53;5058698;28;20229;-68
2023/10/18 11:56:57;;;;;;;6.57;5.97;;;;;;;12.36;69.69;95041.41;5040694;28;20600;-68
2023/10/18 11:59:25;;;;;;;6.32;5.53;;;;;;;12.41;69.41;95043.06;5058739;28;20192;-68
2023/10/18 12:02:04;;;;;;;6.25;5.68;;;;;;;12.42;69.35;95039.94;5058060;28;20507;-68
2023/10/18 12:04:37;;;;;;;7.00;6.30;;;;;;;12.43;69.41;95049.03;5058363;28;20197;-68
2023/10/18 12:07:08;;;;;;;7.22;6.53;;;;;;;12.43;69.51;95046.28;5041005;28;20236;-68
2023/10/18 12:09:42;;;;;;;7.38;6.38;;;;;;;12.44;69.55;95045.91;5041229;28;20193;-68
2023/10/18 12:12:12;;;;;;;7.00;6.30;;;;;;;12.43;69.47;95046.28;5058412;28;20209;-68
2023/10/18 12:14:42;;;;;;;6.68;5.97;;;;;;;12.42;69.70;95048.25;5041008;28;20255;-67
2023/10/18 12:17:12;;;;;;;6.82;6.18;;;;;;;12.40;69.60;95044.22;5058174;28;20194;-68
2023/10/18 12:19:39;;;;;;;7.05;6.45;;;;;;;12.39;69.81;95048.16;5040742;28;20201;-68
2023/10/18 12:22:08;;;;;;;6.95;6.25;;;;;;;12.37;69.69;95045.75;5040649;28;20285;-68